CST,Max TemperatureF,Mean TemperatureF,Min TemperatureF,Max Dew PointF,MeanDew PointF,Min DewpointF,Max Humidity, Mean Humidity, Min Humidity, Max Sea Level PressureIn, Mean Sea Level PressureIn, Min Sea Level PressureIn, Max VisibilityMiles, Mean VisibilityMiles, Min VisibilityMiles, Max Wind SpeedMPH, Mean Wind SpeedMPH, Max Gust SpeedMPH,PrecipitationIn, CloudCover, Events, WindDirDegrees
2013-2-1,28,17,5,11,5,-1,80,61,42,30.50,30.37,30.22,10,10,10,17,8,21,0.00,3,,213
2013-2-2,41,33,25,30,21,12,78,62,46,30.19,30.13,30.03,10,10,10,20,11,26,T,4,,248
2013-2-3,41,36,31,31,21,15,82,58,34,30.22,30.10,29.95,10,10,10,28,12,38,0.00,0,,270
2013-2-4,59,40,20,33,27,21,88,64,39,29.95,29.86,29.78,10,10,8,24,12,31,0.00,2,,258
2013-2-5,58,38,18,32,27,19,92,63,33,30.11,29.98,29.92,10,9,5,22,7,28,0.00,0,,271
2013-2-6,58,45,31,31,28,25,85,58,30,30.19,30.10,30.00,10,10,10,18,10,22,0.00,0,,135
2013-2-7,54,46,37,47,40,31,100,77,54,30.07,29.94,29.86,10,7,1,21,11,25,0.18,7,Rain,269
2013-2-8,37,34,30,34,28,26,96,86,75,30.35,30.26,30.08,10,7,2,21,9,25,0.00,8,,5
2013-2-9,43,36,29,34,28,25,92,73,53,30.33,30.18,29.94,10,9,7,20,11,26,0.15,6,Rain,147
2013-2-10,60,49,37,50,39,26,96,65,33,29.91,29.71,29.55,10,9,3,32,18,43,0.22,6,Rain-Thunderstorm,180
2013-2-11,48,37,25,27,24,20,75,59,42,30.16,30.06,29.91,10,10,10,30,12,41,0.00,0,,262
2013-2-12,42,33,24,34,27,20,89,72,55,30.16,30.05,29.94,10,10,5,16,5,21,T,4,,131
2013-2-13,48,39,29,34,31,29,100,79,58,29.95,29.89,29.85,10,6,0,21,10,25,T,4,Fog,227
2013-2-14,52,42,32,32,29,26,82,63,44,30.08,29.96,29.85,10,10,10,18,10,22,0.00,2,,270
2013-2-15,41,32,23,27,20,12,78,57,35,30.29,30.22,30.09,10,10,10,20,10,24,0.00,4,,326
2013-2-16,36,27,17,18,12,9,74,53,32,30.30,30.23,30.16,10,10,10,15,6,21,0.00,2,,293
2013-2-17,54,42,29,32,22,16,63,48,33,30.16,30.02,29.84,10,10,10,20,11,24,0.00,2,,153
2013-2-18,52,41,29,48,37,19,86,73,60,29.98,29.72,29.54,10,10,3,29,19,40,0.10,5,Rain,218
2013-2-19,36,29,21,18,12,6,75,52,29,30.32,30.17,30.01,10,10,10,26,14,36,0.00,0,,289
2013-2-20,29,23,17,12,9,7,67,57,46,30.39,30.30,30.21,10,10,10,10,7,14,0.00,3,,36
2013-2-21,32,27,22,30,22,13,92,76,60,30.24,29.91,29.75,10,4,0,28,14,35,0.73,8,Fog-Rain-Snow-Thunderstorm,91
2013-2-22,33,27,20,31,24,17,92,81,69,30.09,29.93,29.77,10,10,5,21,11,26,T,6,,244
2013-2-23,36,26,16,20,17,14,92,70,47,30.08,30.03,29.99,10,9,5,12,4,15,0.00,0,,252
2013-2-24,47,33,18,26,23,16,92,67,42,30.09,30.02,29.98,10,10,10,14,7,17,0.00,0,,126
2013-2-25,43,37,30,32,28,25,96,75,53,30.00,29.78,29.51,10,7,0,31,17,43,0.56,5,Fog-Rain-Snow-Thunderstorm,62
2013-2-26,34,33,31,32,31,30,100,95,89,29.73,29.44,29.28,10,4,1,31,13,38,0.30,8,Rain-Snow,343
2013-2-27,32,31,29,29,27,24,100,93,85,29.95,29.83,29.71,8,3,1,22,14,28,T,8,Snow,278
2013-2-28,30,29,28,27,25,23,92,85,78,30.14,30.07,29.92,10,6,1,17,11,21,T,8,Snow,291